createdAt,value
2018-04-14T00:01:15.964Z,77.80
2018-04-14T00:03:43.544Z,78.68
2018-04-14T00:06:11.024Z,79.25
2018-04-14T00:08:38.485Z,78.83
2018-04-14T00:11:05.970Z,78.47
2018-04-14T00:13:34.408Z,79.12
2018-04-14T00:16:01.969Z,79.53
2018-04-14T00:18:29.443Z,78.30
2018-04-14T00:20:56.943Z,79.32
2018-04-14T00:23:25.500Z,79.04
2018-04-14T00:25:53.008Z,78.74
2018-04-14T00:28:20.467Z,78.27
2018-04-14T00:30:48.013Z,76.93
2018-04-14T00:33:15.496Z,77.59
2018-04-14T00:35:42.991Z,79.03
2018-04-14T00:38:10.449Z,78.19
2018-04-14T00:40:37.927Z,78.57
2018-04-14T00:43:06.285Z,78.11
2018-04-14T00:45:33.771Z,77.75
2018-04-14T00:48:01.225Z,79.22
2018-04-14T00:50:28.787Z,79.23
2018-04-14T00:52:56.348Z,79.37
2018-04-14T00:55:23.811Z,78.74
2018-04-14T00:57:51.307Z,78.60
2018-04-14T01:00:18.823Z,77.74
2018-04-14T01:02:46.322Z,77.92
2018-04-14T01:05:13.844Z,79.37
2018-04-14T01:07:41.398Z,79.55
2018-04-14T01:10:08.843Z,79.55
2018-04-14T01:12:36.469Z,79.78
2018-04-14T01:15:03.971Z,80.20
2018-04-14T01:17:32.451Z,81.58
2018-04-14T01:19:59.907Z,82.37
2018-04-14T01:22:27.403Z,81.42
2018-04-14T01:24:54.984Z,81.11
2018-04-14T01:27:22.472Z,82.27
2018-04-14T01:29:49.938Z,82.10
2018-04-14T01:32:17.502Z,82.39
2018-04-14T01:34:44.995Z,82.26
2018-04-14T01:37:12.451Z,81.96
2018-04-14T01:39:41.004Z,81.96
2018-04-14T01:42:09.368Z,81.51
2018-04-14T01:44:36.868Z,80.18
2018-04-14T01:47:04.396Z,79.10
2018-04-14T01:49:31.947Z,78.90
2018-04-14T01:51:59.405Z,78.52
2018-04-14T01:54:26.898Z,77.71
2018-04-14T01:56:54.347Z,77.74
2018-04-14T01:59:22.800Z,78.25
2018-04-14T02:01:50.255Z,79.19
2018-04-14T02:04:17.815Z,79.74
2018-04-14T02:06:45.269Z,79.53
2018-04-14T02:09:12.746Z,78.97
2018-04-14T02:11:40.207Z,79.40
2018-04-14T02:14:07.659Z,80.00
2018-04-14T02:16:35.136Z,80.18
2018-04-14T02:19:02.667Z,80.26
2018-04-14T02:21:30.146Z,78.84
2018-04-14T02:23:57.604Z,79.14
2018-04-14T02:26:25.084Z,79.40
2018-04-14T02:28:54.498Z,80.48
2018-04-14T02:31:21.972Z,80.32
2018-04-14T02:33:49.444Z,79.22
2018-04-14T02:36:17.037Z,79.14
2018-04-14T02:38:44.494Z,79.00
2018-04-14T02:41:11.980Z,79.14
2018-04-14T02:43:39.432Z,78.20
2018-04-14T02:46:06.914Z,78.70
2018-04-14T02:48:34.358Z,78.30
2018-04-14T02:51:01.852Z,78.71
2018-04-14T02:53:30.296Z,79.66
2018-04-14T02:55:57.896Z,79.12
2018-04-14T02:58:25.352Z,78.73
2018-04-14T03:00:52.855Z,78.55
2018-04-14T03:03:20.368Z,79.40
2018-04-14T03:05:48.843Z,79.12
2018-04-14T03:08:16.328Z,78.13
2018-04-14T03:10:43.771Z,77.77
2018-04-14T03:13:12.249Z,78.43
2018-04-14T03:15:40.692Z,77.81
2018-04-14T03:18:08.173Z,79.58
2018-04-14T03:20:35.632Z,79.41
2018-04-14T03:23:03.115Z,78.40
2018-04-14T03:25:30.567Z,78.65
2018-04-14T03:27:58.059Z,78.09
2018-04-14T03:30:25.520Z,79.49
2018-04-14T03:32:53.020Z,80.37
2018-04-14T03:35:20.486Z,80.36
2018-04-14T03:37:47.970Z,80.89
2018-04-14T03:40:16.385Z,80.85
2018-04-14T03:42:43.880Z,81.56
2018-04-14T03:45:11.340Z,83.26
2018-04-14T03:47:38.830Z,83.50
2018-04-14T03:50:06.289Z,83.72
2018-04-14T03:52:34.735Z,82.93
2018-04-14T03:55:02.208Z,82.63
2018-04-14T03:57:29.668Z,82.62
2018-04-14T03:59:57.163Z,82.83
2018-04-14T04:02:25.548Z,82.29
2018-04-14T04:04:53.135Z,82.62
2018-04-14T04:07:20.689Z,83.04
2018-04-14T04:09:48.176Z,82.80
2018-04-14T04:12:15.631Z,83.66
2018-04-14T04:14:43.139Z,83.38
2018-04-14T04:17:10.600Z,83.30
2018-04-14T04:19:51.064Z,83.85
2018-04-14T04:22:30.396Z,84.60
2018-04-14T04:28:09.905Z,84.28
2018-04-14T04:30:37.387Z,84.26
2018-04-14T04:33:04.846Z,84.36
2018-04-14T04:35:32.338Z,84.59
2018-04-14T04:37:59.803Z,84.64
2018-04-14T04:40:27.291Z,84.42
2018-04-14T04:42:54.750Z,83.98
2018-04-14T04:45:22.287Z,84.61
2018-04-14T04:47:49.837Z,83.22
2018-04-14T04:50:17.328Z,81.77
2018-04-14T04:52:44.773Z,81.54
2018-04-14T04:55:13.158Z,81.57
2018-04-14T04:57:40.617Z,81.58
2018-04-14T05:00:08.146Z,81.31
2018-04-14T05:02:35.598Z,80.55
2018-04-14T05:05:03.048Z,80.56
2018-04-14T05:07:30.524Z,80.66
2018-04-14T05:09:58.035Z,81.19
2018-04-14T05:12:25.521Z,81.51
2018-04-14T05:14:52.975Z,83.18
2018-04-14T05:17:20.463Z,82.69
2018-04-14T05:19:47.923Z,81.71
2018-04-14T05:22:15.410Z,81.00
2018-04-14T05:24:43.811Z,80.68
2018-04-14T05:27:11.396Z,80.25
2018-04-14T05:29:38.850Z,80.04
2018-04-14T05:32:06.332Z,79.86
2018-04-14T05:34:33.787Z,81.45
2018-04-14T05:37:01.281Z,81.99
2018-04-14T05:39:28.748Z,81.26
2018-04-14T05:41:56.207Z,81.59
2018-04-14T05:44:23.767Z,81.81
2018-04-14T05:46:51.257Z,81.12
2018-04-14T05:49:19.734Z,81.01
2018-04-14T05:51:47.184Z,81.12
2018-04-14T05:54:14.679Z,81.41
2018-04-14T05:56:42.208Z,80.90
2018-04-14T05:59:09.689Z,81.49
2018-04-14T06:01:37.147Z,80.89
2018-04-14T06:04:04.625Z,80.87
2018-04-14T06:06:32.080Z,81.58
2018-04-14T06:08:59.621Z,81.89
2018-04-14T06:11:27.027Z,81.36
2018-04-14T06:13:54.511Z,82.04
2018-04-14T06:16:21.963Z,81.34
2018-04-14T06:18:49.469Z,81.21
2018-04-14T06:21:16.916Z,80.97
2018-04-14T06:23:44.451Z,80.17
2018-04-14T06:26:11.947Z,80.46
2018-04-14T06:28:39.453Z,80.98
2018-04-14T06:31:06.940Z,81.26
2018-04-14T06:33:34.396Z,81.10
2018-04-14T06:36:01.882Z,81.25
2018-04-14T06:38:29.484Z,81.01
2018-04-14T06:40:56.971Z,80.48
2018-04-14T06:43:24.504Z,80.54
2018-04-14T06:45:51.998Z,79.96
2018-04-14T06:48:19.439Z,80.44
2018-04-14T06:50:46.967Z,81.15
2018-04-14T06:53:14.626Z,81.37
2018-04-14T06:55:42.107Z,81.11
2018-04-14T06:58:09.638Z,81.01
2018-04-14T07:00:37.123Z,80.80
2018-04-14T07:03:04.574Z,81.89
2018-04-14T07:05:32.054Z,82.00
2018-04-14T07:07:59.510Z,81.68
2018-04-14T07:10:27.002Z,82.42
2018-04-14T07:12:54.482Z,81.98
2018-04-14T07:15:22.964Z,82.12
2018-04-14T07:17:50.443Z,82.64
2018-04-14T07:20:17.901Z,81.81
2018-04-14T07:22:45.379Z,81.55
2018-04-14T07:25:12.916Z,79.99
2018-04-14T07:27:40.407Z,79.42
2018-04-14T07:30:07.858Z,79.48
2018-04-14T07:32:35.380Z,80.43
2018-04-14T07:35:02.838Z,81.63
2018-04-14T07:37:30.357Z,83.63
2018-04-14T07:39:57.788Z,82.67
2018-04-14T07:42:25.271Z,83.83
2018-04-14T07:44:52.731Z,82.25
2018-04-14T07:47:20.231Z,82.80
2018-04-14T07:49:47.692Z,83.36
2018-04-14T07:52:15.192Z,84.29
2018-04-14T07:54:42.691Z,84.32
2018-04-14T07:57:10.175Z,85.14
2018-04-14T07:59:37.639Z,84.43
2018-04-14T08:02:05.115Z,85.69
2018-04-14T08:04:32.609Z,84.92
2018-04-14T08:07:00.075Z,83.81
2018-04-14T08:09:27.562Z,84.16
2018-04-14T08:11:55.019Z,82.95
2018-04-14T08:14:22.516Z,81.94
2018-04-14T08:16:49.985Z,81.26
2018-04-14T08:19:17.463Z,82.22
2018-04-14T08:21:44.919Z,82.83
2018-04-14T08:24:12.415Z,81.37
2018-04-14T08:26:39.867Z,81.58
2018-04-14T08:29:07.348Z,83.54
2018-04-14T08:31:34.806Z,83.67
2018-04-14T08:34:02.300Z,83.97
2018-04-14T08:36:29.756Z,83.27
2018-04-14T08:38:57.248Z,82.46
2018-04-14T08:41:24.712Z,81.88
2018-04-14T08:43:52.204Z,82.44
2018-04-14T08:46:19.663Z,81.62
2018-04-14T08:48:47.123Z,81.58
2018-04-14T08:51:14.612Z,82.60
2018-04-14T08:53:42.063Z,83.40
2018-04-14T08:56:09.544Z,82.57
2018-04-14T08:58:37.043Z,82.71
2018-04-14T09:01:04.525Z,81.52
2018-04-14T09:03:31.981Z,81.71
2018-04-14T09:05:59.465Z,82.86
2018-04-14T09:08:26.925Z,83.57
2018-04-14T09:10:54.408Z,84.03
2018-04-14T09:13:21.873Z,83.55
2018-04-14T09:15:52.104Z,83.40
2018-04-14T09:18:19.560Z,82.73
2018-04-14T09:20:47.063Z,82.69
2018-04-14T09:23:14.523Z,83.51
2018-04-14T09:25:42.047Z,82.38
2018-04-14T09:28:09.528Z,81.41
2018-04-14T09:30:36.986Z,81.12
2018-04-14T09:33:04.511Z,81.75
2018-04-14T09:35:31.963Z,79.83
2018-04-14T09:37:59.491Z,80.33
2018-04-14T09:40:26.943Z,79.98
2018-04-14T09:42:54.569Z,79.92
2018-04-14T09:45:21.985Z,81.33
2018-04-14T09:47:49.472Z,82.17
2018-04-14T09:50:16.932Z,81.15
2018-04-14T09:52:44.438Z,80.96
2018-04-14T09:55:11.903Z,81.88
2018-04-14T09:57:41.280Z,81.82
2018-04-14T10:00:08.776Z,81.72
2018-04-14T10:02:42.110Z,81.18
2018-04-14T10:05:09.583Z,82.23
2018-04-14T10:07:37.086Z,81.58
2018-04-14T10:10:04.613Z,82.43
2018-04-14T10:12:32.140Z,82.00
2018-04-14T10:14:59.664Z,81.71
2018-04-14T10:17:27.123Z,81.08
2018-04-14T10:19:54.627Z,80.62
2018-04-14T10:22:22.080Z,81.56
2018-04-14T10:24:49.564Z,82.46
2018-04-14T10:27:17.016Z,83.35
2018-04-14T10:29:45.496Z,82.27
2018-04-14T10:32:12.949Z,82.65
2018-04-14T10:34:40.451Z,83.25
2018-04-14T10:37:09.922Z,83.52
2018-04-14T10:39:37.481Z,83.73
2018-04-14T10:42:04.972Z,83.74
2018-04-14T10:44:32.456Z,83.09
2018-04-14T10:47:00.927Z,83.62
2018-04-14T10:49:28.671Z,82.61
2018-04-14T10:51:59.526Z,82.56
2018-04-14T10:54:26.999Z,82.92
2018-04-14T10:56:55.512Z,83.07
2018-04-14T10:59:26.429Z,82.93
2018-04-14T11:01:53.935Z,82.42
2018-04-14T11:04:21.396Z,82.32
2018-04-14T11:06:49.841Z,81.96
2018-04-14T11:09:17.292Z,82.35
2018-04-14T11:11:44.796Z,82.57
2018-04-14T11:14:12.270Z,83.40
2018-04-14T11:16:39.772Z,82.87
2018-04-14T11:19:08.196Z,83.07
2018-04-14T11:21:35.683Z,83.53
2018-04-14T11:24:05.051Z,82.94
2018-04-14T11:26:32.640Z,83.16
2018-04-14T11:29:04.592Z,82.18
2018-04-14T11:31:33.070Z,83.49
2018-04-14T11:34:00.581Z,83.66
2018-04-14T11:36:28.092Z,84.35
2018-04-14T11:38:55.552Z,83.45
2018-04-14T11:41:23.071Z,83.08
2018-04-14T11:43:51.478Z,84.37
2018-04-14T11:46:19.085Z,83.81
2018-04-14T11:48:46.564Z,83.13
2018-04-14T11:51:14.101Z,82.91
2018-04-14T11:53:41.580Z,83.76
2018-04-14T11:56:09.179Z,83.63
2018-04-14T11:58:39.069Z,83.87
2018-04-14T12:01:06.535Z,84.65
2018-04-14T12:03:34.036Z,85.37
2018-04-14T12:06:04.653Z,85.96
2018-04-14T12:08:32.429Z,85.86
2018-04-14T12:10:59.914Z,86.09
2018-04-14T12:13:27.411Z,85.61
2018-04-14T12:15:54.907Z,85.39
2018-04-14T12:18:22.443Z,85.85
2018-04-14T12:20:50.981Z,86.51
2018-04-14T12:23:18.487Z,86.85
2018-04-14T12:25:45.963Z,86.41
2018-04-14T12:28:15.464Z,86.70
2018-04-14T12:30:42.936Z,86.91
2018-04-14T12:33:10.472Z,87.00
2018-04-14T12:35:38.815Z,86.26
2018-04-14T12:38:07.423Z,86.30
2018-04-14T12:40:43.011Z,86.92
2018-04-14T12:43:10.492Z,87.16
2018-04-14T12:45:39.901Z,86.39
2018-04-14T12:48:07.387Z,85.80
2018-04-14T12:50:34.874Z,86.62
2018-04-14T12:53:02.319Z,87.21
2018-04-14T12:55:29.801Z,86.54
2018-04-14T12:57:58.302Z,87.13
2018-04-14T13:00:25.747Z,86.87
2018-04-14T13:02:53.220Z,87.22
2018-04-14T13:05:20.719Z,87.10
2018-04-14T13:07:48.200Z,86.71
2018-04-14T13:10:15.773Z,86.71
2018-04-14T13:12:43.257Z,86.81
2018-04-14T13:15:10.747Z,86.74
2018-04-14T13:17:40.171Z,86.81
2018-04-14T13:20:07.687Z,87.81
2018-04-14T13:22:35.168Z,87.40
2018-04-14T13:25:02.659Z,87.02
2018-04-14T13:27:30.187Z,86.81
2018-04-14T13:29:57.676Z,86.60
2018-04-14T13:32:29.678Z,86.76
2018-04-14T13:34:58.053Z,86.77
2018-04-14T13:37:25.556Z,87.27
2018-04-14T13:39:53.008Z,86.99
2018-04-14T13:42:20.508Z,86.91
2018-04-14T13:44:47.969Z,86.65
2018-04-14T13:47:16.439Z,86.83
2018-04-14T13:49:43.925Z,86.72
2018-04-14T13:52:14.643Z,87.40
2018-04-14T13:54:42.141Z,86.88
2018-04-14T13:57:09.680Z,86.88
2018-04-14T13:59:37.143Z,87.23
2018-04-14T14:02:04.644Z,86.37
2018-04-14T14:04:32.109Z,85.91
2018-04-14T14:06:59.614Z,85.97
2018-04-14T14:09:27.071Z,85.76
2018-04-14T14:11:54.604Z,85.89
2018-04-14T14:14:22.082Z,86.31
2018-04-14T14:16:49.575Z,86.70
2018-04-14T14:19:20.414Z,86.52
2018-04-14T14:21:48.926Z,86.26
2018-04-14T14:24:16.575Z,86.34
2018-04-14T14:26:44.035Z,86.00
2018-04-14T14:29:11.585Z,86.26
2018-04-14T14:31:39.047Z,87.89
2018-04-14T14:34:06.608Z,86.02
2018-04-14T14:36:34.076Z,86.64
2018-04-14T14:39:01.564Z,86.79
2018-04-14T14:41:29.068Z,86.13
2018-04-14T14:43:56.585Z,86.41
2018-04-14T14:46:24.091Z,86.40
2018-04-14T14:48:51.584Z,86.67
2018-04-14T14:51:19.043Z,87.17
2018-04-14T14:53:46.575Z,87.02
2018-04-14T14:56:14.088Z,87.36
2018-04-14T14:58:42.510Z,87.31
2018-04-14T15:01:09.973Z,88.00
2018-04-14T15:03:37.512Z,88.25
2018-04-14T15:06:06.893Z,87.45
2018-04-14T15:08:34.367Z,87.74
2018-04-14T15:11:02.899Z,87.91
2018-04-14T15:13:30.360Z,88.08
2018-04-14T15:15:57.851Z,88.39
2018-04-14T15:18:25.316Z,88.62
2018-04-14T15:20:52.840Z,89.00
2018-04-14T15:23:20.349Z,88.52
2018-04-14T15:25:47.887Z,89.55
2018-04-14T15:28:15.374Z,89.32
2018-04-14T15:30:42.860Z,88.58
2018-04-14T15:33:10.319Z,89.28
2018-04-14T15:35:37.819Z,88.95
2018-04-14T15:38:05.279Z,88.81
2018-04-14T15:40:32.808Z,88.63
2018-04-14T15:43:00.298Z,88.39
2018-04-14T15:45:27.868Z,88.58
2018-04-14T15:47:55.375Z,89.38
2018-04-14T15:50:22.848Z,89.42
2018-04-14T15:52:50.335Z,88.32
2018-04-14T15:55:17.820Z,88.25
2018-04-14T15:57:45.311Z,88.24
2018-04-14T16:00:12.772Z,88.61
2018-04-14T16:02:40.332Z,88.34
2018-04-14T16:05:07.804Z,88.65
2018-04-14T16:07:35.291Z,88.48
2018-04-14T16:10:02.833Z,89.06
2018-04-14T16:12:30.332Z,89.03
2018-04-14T16:14:57.785Z,89.23
2018-04-14T16:17:25.275Z,88.42
2018-04-14T16:19:52.747Z,88.80
2018-04-14T16:22:20.195Z,89.00
2018-04-14T16:24:47.688Z,89.03
2018-04-14T16:27:15.139Z,88.92
2018-04-14T16:29:42.626Z,89.53
2018-04-14T16:32:10.087Z,89.31
2018-04-14T16:34:37.612Z,88.82
2018-04-14T16:37:05.066Z,89.02
2018-04-14T16:39:32.552Z,88.64
2018-04-14T16:42:00.003Z,88.77
2018-04-14T16:44:27.539Z,88.87
2018-04-14T16:46:54.999Z,88.90
2018-04-14T16:49:22.546Z,88.92
2018-04-14T16:51:49.984Z,88.55
2018-04-14T16:54:17.472Z,88.30
2018-04-14T16:56:44.929Z,88.89
2018-04-14T16:59:12.428Z,88.51
2018-04-14T17:01:39.900Z,88.14
2018-04-14T17:04:07.399Z,88.48
2018-04-14T17:06:34.888Z,88.48
2018-04-14T17:09:02.392Z,88.23
2018-04-14T17:11:29.851Z,88.39
2018-04-14T17:13:57.439Z,88.83
2018-04-14T17:16:24.995Z,88.40
2018-04-14T17:18:52.601Z,88.98
2018-04-14T17:21:20.064Z,89.34
2018-04-14T17:23:47.541Z,89.25
2018-04-14T17:26:15.032Z,88.94
2018-04-14T17:28:42.540Z,88.92
2018-04-14T17:31:10.030Z,88.83
2018-04-14T17:33:37.494Z,88.47
2018-04-14T17:36:04.991Z,88.49
2018-04-14T17:38:32.454Z,88.57
2018-04-14T17:40:59.972Z,88.41
2018-04-14T17:43:27.440Z,88.08
2018-04-14T17:45:54.934Z,88.13
2018-04-14T17:48:22.392Z,87.75
2018-04-14T17:50:49.872Z,88.13
2018-04-14T17:53:17.331Z,88.20
2018-04-14T17:55:44.819Z,88.34
2018-04-14T17:58:12.380Z,88.53
2018-04-14T18:00:39.872Z,88.14
2018-04-14T18:03:07.331Z,87.93
2018-04-14T18:05:34.781Z,88.19
2018-04-14T18:08:02.316Z,88.54
2018-04-14T18:10:29.783Z,87.93
2018-04-14T18:12:57.421Z,88.20
2018-04-14T18:15:24.884Z,87.95
2018-04-14T18:17:52.375Z,88.02
2018-04-14T18:20:19.831Z,87.81
2018-04-14T18:22:47.328Z,87.83
2018-04-14T18:25:14.802Z,87.79
2018-04-14T18:27:42.371Z,87.88
2018-04-14T18:30:09.822Z,88.16
2018-04-14T18:32:37.355Z,88.47
2018-04-14T18:35:05.732Z,88.19
2018-04-14T18:37:33.223Z,88.04
2018-04-14T18:42:51.120Z,88.45
2018-04-14T18:45:18.576Z,88.27
2018-04-14T18:47:46.071Z,88.62
2018-04-14T18:50:13.544Z,88.08
2018-04-14T18:55:14.938Z,88.38
2018-04-14T18:57:44.128Z,88.38
2018-04-14T19:00:11.634Z,87.94
2018-04-14T19:05:32.267Z,87.67
2018-04-14T19:08:00.752Z,87.90
2018-04-14T19:10:28.456Z,87.60
2018-04-14T19:12:55.900Z,87.80
2018-04-14T19:15:25.953Z,87.33
